createdAt,value
2023-01-29T00:28:47.565Z,5.88
2023-01-29T00:58:51.139Z,5.53
2023-01-29T01:28:54.544Z,6.18
2023-01-29T01:58:57.454Z,6.13
2023-01-29T02:29:02.449Z,6.23
2023-01-29T02:59:05.503Z,5.28
2023-01-29T03:29:08.760Z,3.80
2023-01-29T03:59:12.048Z,5.43
2023-01-29T04:29:15.377Z,5.43
2023-01-29T04:59:18.299Z,4.70
2023-01-29T05:29:22.426Z,6.70
2023-01-29T05:59:25.300Z,6.40
2023-01-29T06:29:29.404Z,6.23
2023-01-29T06:59:32.318Z,7.35
2023-01-29T07:29:36.296Z,6.07
2023-01-29T07:59:39.107Z,10.57
2023-01-29T08:29:43.214Z,9.30
2023-01-29T08:59:46.103Z,8.07
2023-01-29T09:29:51.094Z,11.60
2023-01-29T09:59:54.249Z,8.67
2023-01-29T11:00:21.418Z,8.73
2023-01-29T12:01:00.490Z,11.13
2023-01-29T12:31:26.458Z,10.47
2023-01-29T13:01:30.980Z,15.77
2023-01-29T14:01:53.087Z,14.57
2023-01-29T15:02:14.505Z,13.40
2023-01-29T15:32:18.223Z,16.07
2023-01-29T16:02:27.156Z,14.00
2023-01-29T16:32:34.243Z,15.70
2023-01-29T17:02:38.420Z,13.23
2023-01-29T17:32:58.355Z,15.85
2023-01-29T18:03:14.889Z,13.73
2023-01-29T18:33:18.602Z,14.63
2023-01-29T19:03:22.651Z,13.67
2023-01-29T19:33:25.670Z,13.13
2023-01-29T20:03:45.451Z,12.40
2023-01-29T20:33:48.836Z,13.67
2023-01-29T21:03:54.210Z,13.20
2023-01-29T21:33:57.367Z,12.27
2023-01-29T22:04:00.383Z,12.03
2023-01-29T22:34:04.397Z,10.37
2023-01-29T23:04:08.103Z,11.55
2023-01-29T23:34:10.967Z,10.70
